createdAt,value
2022-11-05T00:00:52.363Z,11.27
2022-11-05T00:05:15.886Z,11.43
2022-11-05T00:09:33.420Z,10.95
2022-11-05T00:13:53.988Z,12.55
2022-11-05T00:18:15.813Z,12.38
2022-11-05T00:22:36.528Z,13.07
2022-11-05T00:26:44.242Z,12.93
2022-11-05T00:30:47.048Z,14.02
2022-11-05T00:34:51.468Z,14.60
2022-11-05T00:38:54.292Z,15.05
2022-11-05T00:43:14.548Z,15.15
2022-11-05T00:47:35.041Z,14.68
2022-11-05T00:51:39.331Z,15.55
2022-11-05T00:55:44.658Z,15.10
2022-11-05T00:59:47.643Z,14.60
2022-11-05T01:03:51.866Z,17.80
2022-11-05T01:08:02.622Z,19.38
2022-11-05T01:12:05.774Z,20.88
2022-11-05T01:16:10.581Z,18.67
2022-11-05T01:20:13.734Z,18.63
2022-11-05T01:24:17.877Z,17.23
2022-11-05T01:28:20.740Z,16.45
2022-11-05T01:32:23.597Z,17.17
2022-11-05T01:36:26.558Z,16.15
2022-11-05T01:40:30.794Z,16.83
2022-11-05T01:45:09.481Z,19.70
2022-11-05T01:49:19.042Z,18.27
2022-11-05T01:53:27.416Z,18.95
2022-11-05T01:57:33.378Z,19.27
2022-11-05T02:01:37.138Z,21.08
2022-11-05T02:05:41.726Z,19.35
2022-11-05T02:09:49.935Z,22.42
2022-11-05T02:13:54.206Z,23.50
2022-11-05T02:18:07.482Z,22.75
2022-11-05T02:22:44.627Z,22.13
2022-11-05T02:27:07.805Z,26.15
2022-11-05T02:31:18.567Z,23.23
2022-11-05T02:35:32.947Z,23.27
2022-11-05T02:39:43.977Z,24.08
2022-11-05T02:44:00.421Z,25.50
2022-11-05T02:48:14.170Z,24.95
2022-11-05T02:52:22.160Z,23.83
2022-11-05T02:56:29.337Z,21.98
2022-11-05T03:00:51.408Z,22.83
2022-11-05T03:04:55.622Z,23.25
2022-11-05T03:09:32.942Z,22.77
2022-11-05T03:13:44.852Z,22.50
2022-11-05T03:18:00.038Z,23.52
2022-11-05T03:22:09.215Z,24.88
2022-11-05T03:26:17.548Z,26.25
2022-11-05T03:30:21.431Z,24.05
2022-11-05T03:34:30.242Z,24.23
2022-11-05T03:38:38.271Z,22.92
2022-11-05T03:42:45.438Z,22.02
2022-11-05T03:46:50.779Z,20.55
2022-11-05T03:51:01.171Z,23.23
2022-11-05T03:55:06.778Z,19.38
2022-11-05T03:59:11.046Z,20.40
2022-11-05T04:03:14.091Z,20.23
2022-11-05T04:07:34.454Z,19.20
2022-11-05T04:11:56.388Z,18.42
2022-11-05T04:16:16.707Z,18.23
2022-11-05T04:20:36.865Z,18.30
2022-11-05T04:24:39.688Z,17.42
2022-11-05T04:29:06.778Z,19.05
2022-11-05T04:33:13.173Z,17.45
2022-11-05T04:37:16.233Z,16.83
2022-11-05T04:41:19.483Z,17.38
2022-11-05T04:45:24.245Z,17.80
2022-11-05T04:49:27.049Z,16.45
2022-11-05T04:53:30.981Z,19.17
2022-11-05T04:57:33.877Z,18.67
2022-11-05T05:01:38.211Z,17.80
2022-11-05T05:05:41.159Z,17.88
2022-11-05T05:09:44.000Z,17.85
2022-11-05T05:13:47.567Z,17.60
2022-11-05T05:17:53.399Z,18.10
2022-11-05T05:21:56.191Z,17.30
2022-11-05T05:26:00.478Z,17.27
2022-11-05T05:30:03.450Z,16.70
2022-11-05T05:34:09.034Z,16.60
2022-11-05T05:38:11.902Z,16.77
2022-11-05T05:42:15.213Z,16.75
2022-11-05T05:46:19.377Z,17.30
2022-11-05T05:50:23.511Z,17.65
2022-11-05T05:54:32.642Z,16.50
2022-11-05T05:58:39.754Z,16.10
2022-11-05T06:02:43.196Z,17.25
2022-11-05T06:06:48.187Z,16.65
2022-11-05T06:10:54.190Z,16.92
2022-11-05T06:14:57.062Z,16.02
2022-11-05T06:18:59.940Z,17.92
2022-11-05T06:23:04.508Z,17.50
2022-11-05T06:27:07.363Z,17.13
2022-11-05T06:31:14.098Z,17.63
2022-11-05T06:35:17.934Z,16.52
2022-11-05T06:39:22.074Z,16.85
2022-11-05T06:43:24.915Z,17.67
2022-11-05T06:47:28.033Z,17.15
2022-11-05T06:51:31.171Z,17.17
2022-11-05T06:55:35.331Z,17.60
2022-11-05T06:59:38.207Z,17.08
2022-11-05T07:03:51.964Z,15.65
2022-11-05T07:07:57.112Z,16.67
2022-11-05T07:12:01.267Z,15.07
2022-11-05T07:16:04.135Z,14.80
2022-11-05T07:20:08.806Z,14.98
2022-11-05T07:24:11.617Z,15.18
2022-11-05T07:28:15.775Z,14.52
2022-11-05T07:32:18.940Z,14.32
2022-11-05T07:36:21.755Z,14.70
2022-11-05T07:40:26.655Z,15.05
2022-11-05T07:44:30.834Z,15.07
2022-11-05T07:48:33.661Z,14.07
2022-11-05T07:52:36.470Z,13.68
2022-11-05T07:56:39.318Z,13.52
2022-11-05T08:00:43.644Z,13.23
2022-11-05T08:04:46.630Z,13.88
2022-11-05T08:08:49.482Z,13.35
2022-11-05T08:12:53.922Z,12.60
2022-11-05T08:16:59.619Z,13.15
2022-11-05T08:21:05.104Z,13.27
2022-11-05T08:25:08.999Z,13.45
2022-11-05T08:29:11.929Z,13.07
2022-11-05T08:33:16.511Z,11.98
2022-11-05T08:37:19.405Z,11.98
2022-11-05T08:41:22.256Z,12.93
2022-11-05T08:45:25.667Z,12.43
2022-11-05T08:49:29.768Z,11.30
2022-11-05T08:53:33.043Z,11.32
2022-11-05T08:57:35.838Z,11.80
2022-11-05T09:01:38.861Z,10.43
2022-11-05T09:05:43.725Z,10.02
2022-11-05T09:09:46.952Z,9.65
2022-11-05T09:13:49.758Z,11.13
2022-11-05T09:17:52.838Z,9.65
2022-11-05T09:21:59.288Z,8.40
2022-11-05T09:26:02.220Z,9.48
2022-11-05T09:30:06.030Z,8.20
2022-11-05T09:34:08.872Z,6.97
2022-11-05T09:38:13.082Z,7.20
2022-11-05T09:42:21.070Z,7.55
2022-11-05T09:46:26.490Z,8.55
2022-11-05T09:50:35.585Z,8.73
2022-11-05T09:54:40.138Z,7.53
2022-11-05T09:58:48.480Z,7.40
2022-11-05T10:02:55.519Z,8.35
2022-11-05T10:07:02.545Z,7.78
2022-11-05T10:11:12.748Z,7.97
2022-11-05T10:15:18.449Z,6.90
2022-11-05T10:19:26.108Z,7.97
2022-11-05T10:23:29.741Z,7.32
2022-11-05T10:27:38.508Z,8.13
2022-11-05T10:31:41.624Z,7.75
2022-11-05T10:35:50.157Z,8.38
2022-11-05T10:39:53.000Z,7.65
2022-11-05T10:44:04.903Z,7.30
2022-11-05T10:48:50.451Z,6.72
2022-11-05T10:53:00.471Z,4.97
2022-11-05T10:57:35.405Z,5.15
2022-11-05T11:01:38.551Z,5.13
2022-11-05T11:05:41.599Z,5.65
2022-11-05T11:09:49.617Z,5.28
2022-11-05T11:14:02.218Z,4.45
2022-11-05T11:18:26.991Z,4.18
2022-11-05T11:22:29.940Z,4.00
2022-11-05T11:26:36.971Z,3.70
2022-11-05T11:30:47.343Z,4.00
2022-11-05T11:34:53.643Z,4.95
2022-11-05T11:39:00.970Z,4.32
2022-11-05T11:43:13.504Z,4.45
2022-11-05T11:47:20.747Z,3.60
2022-11-05T11:51:32.379Z,3.45
2022-11-05T11:55:35.212Z,3.17
2022-11-05T12:00:07.213Z,4.10
2022-11-05T12:04:27.120Z,3.40
2022-11-05T12:08:45.590Z,3.85
2022-11-05T12:12:59.223Z,3.42
2022-11-05T12:17:24.270Z,3.30
2022-11-05T12:21:52.088Z,3.55
2022-11-05T12:26:03.017Z,3.22
2022-11-05T12:30:12.700Z,3.20
2022-11-05T12:34:29.406Z,3.47
2022-11-05T12:38:59.929Z,3.53
2022-11-05T12:43:14.936Z,3.08
2022-11-05T12:47:31.228Z,3.60
2022-11-05T12:51:48.999Z,3.92
2022-11-05T12:55:54.692Z,3.22
2022-11-05T13:00:02.969Z,3.25
2022-11-05T13:04:15.711Z,3.35
2022-11-05T13:08:24.253Z,2.75
2022-11-05T13:12:32.579Z,3.10
2022-11-05T13:16:38.688Z,3.10
2022-11-05T13:20:45.787Z,2.80
2022-11-05T13:24:50.844Z,3.08
2022-11-05T13:29:00.367Z,2.92
2022-11-05T13:33:06.827Z,3.15
2022-11-05T13:37:28.872Z,3.92
2022-11-05T13:41:42.669Z,6.20
2022-11-05T13:46:06.258Z,3.80
2022-11-05T13:50:32.194Z,3.42
2022-11-05T13:55:17.068Z,3.28
2022-11-05T13:59:35.694Z,3.00
2022-11-05T14:03:46.929Z,3.67
2022-11-05T14:07:50.277Z,3.10
2022-11-05T14:11:57.316Z,2.92
2022-11-05T14:16:05.482Z,3.08
2022-11-05T14:20:38.442Z,2.72
2022-11-05T14:24:44.079Z,3.13
2022-11-05T14:29:06.465Z,3.25
2022-11-05T14:33:32.073Z,2.85
2022-11-05T14:37:39.340Z,2.92
2022-11-05T14:42:01.728Z,3.33
2022-11-05T14:46:07.047Z,3.13
2022-11-05T14:50:12.794Z,3.40
2022-11-05T14:54:22.046Z,3.13
2022-11-05T14:58:31.415Z,3.30
2022-11-05T15:02:37.956Z,3.42
2022-11-05T15:06:40.796Z,2.92
2022-11-05T15:10:46.128Z,3.40
2022-11-05T15:14:56.953Z,3.22
2022-11-05T15:19:00.882Z,3.78
2022-11-05T15:23:05.773Z,4.10
2022-11-05T15:27:19.249Z,4.22
2022-11-05T15:31:32.434Z,4.18
2022-11-05T15:35:41.170Z,3.65
2022-11-05T15:39:45.608Z,3.92
2022-11-05T15:43:51.238Z,3.65
2022-11-05T15:47:54.031Z,6.95
2022-11-05T15:51:57.086Z,11.50
2022-11-05T15:56:08.998Z,8.55
2022-11-05T16:00:20.375Z,5.88
2022-11-05T16:04:26.614Z,4.82
2022-11-05T16:08:31.425Z,4.20
2022-11-05T16:12:36.674Z,3.80
2022-11-05T16:16:40.944Z,3.63
2022-11-05T16:21:01.049Z,4.57
2022-11-05T16:25:22.803Z,4.35
2022-11-05T16:29:29.408Z,3.80
2022-11-05T16:33:44.823Z,4.00
2022-11-05T16:37:52.068Z,4.30
2022-11-05T16:41:55.378Z,4.43
2022-11-05T16:45:59.950Z,7.28
2022-11-05T16:50:14.318Z,6.20
2022-11-05T16:54:17.106Z,3.72
2022-11-05T16:58:22.342Z,3.13
2022-11-05T17:02:25.509Z,4.00
2022-11-05T17:06:29.742Z,3.00
2022-11-05T17:10:32.896Z,3.03
2022-11-05T17:14:35.770Z,4.00
2022-11-05T17:18:39.116Z,2.88
2022-11-05T17:22:43.278Z,5.30
2022-11-05T17:26:46.739Z,4.35
2022-11-05T17:30:53.024Z,2.88
2022-11-05T17:34:56.399Z,2.53
2022-11-05T17:39:00.897Z,2.60
2022-11-05T17:43:05.006Z,2.40
2022-11-05T17:47:07.981Z,4.20
2022-11-05T17:51:12.377Z,3.13
2022-11-05T17:55:19.569Z,2.80
2022-11-05T17:59:22.633Z,2.75
2022-11-05T18:03:25.775Z,2.60
2022-11-05T18:07:29.025Z,2.22
2022-11-05T18:11:33.946Z,2.40
2022-11-05T18:15:40.898Z,2.65
2022-11-05T18:19:44.457Z,2.40
2022-11-05T18:23:47.441Z,2.30
2022-11-05T18:27:51.617Z,2.47
2022-11-05T18:31:54.496Z,2.38
2022-11-05T18:35:57.320Z,2.83
2022-11-05T18:40:00.669Z,2.60
2022-11-05T18:44:05.630Z,3.05
2022-11-05T18:48:08.927Z,3.20
2022-11-05T18:52:12.591Z,3.33
2022-11-05T18:56:17.726Z,2.95
2022-11-05T19:00:22.299Z,3.30
2022-11-05T19:04:26.211Z,3.20
2022-11-05T19:08:29.023Z,2.72
2022-11-05T19:12:31.921Z,2.63
2022-11-05T19:16:36.359Z,2.83
2022-11-05T19:20:40.001Z,2.95
2022-11-05T19:24:42.822Z,2.70
2022-11-05T19:28:46.246Z,2.50
2022-11-05T19:32:50.928Z,3.05
2022-11-05T19:36:53.981Z,2.40
2022-11-05T19:40:57.041Z,2.30
2022-11-05T19:45:17.035Z,2.72
2022-11-05T19:49:24.987Z,2.65
2022-11-05T19:53:27.972Z,2.95
2022-11-05T19:57:31.018Z,2.83
2022-11-05T20:01:35.171Z,2.83
2022-11-05T20:05:39.570Z,2.50
2022-11-05T20:09:42.667Z,2.67
2022-11-05T20:13:45.613Z,2.50
2022-11-05T20:17:53.195Z,2.50
2022-11-05T20:22:00.559Z,2.60
2022-11-05T20:26:05.094Z,2.88
2022-11-05T20:30:09.854Z,2.90
2022-11-05T20:34:12.740Z,2.83
2022-11-05T20:38:17.544Z,2.70
2022-11-05T20:42:20.390Z,2.80
2022-11-05T20:46:23.981Z,2.88
2022-11-05T20:50:26.828Z,2.85
2022-11-05T20:54:30.945Z,2.90
2022-11-05T20:58:33.748Z,3.17
2022-11-05T21:02:38.581Z,2.92
2022-11-05T21:06:41.532Z,3.30
2022-11-05T21:10:50.881Z,3.53
2022-11-05T21:14:54.087Z,3.40
2022-11-05T21:18:56.909Z,3.53
2022-11-05T21:22:59.856Z,4.13
2022-11-05T21:27:04.014Z,3.83
2022-11-05T21:31:08.170Z,4.10
2022-11-05T21:35:10.972Z,3.60
2022-11-05T21:39:14.098Z,4.18
2022-11-05T21:43:18.485Z,4.10
2022-11-05T21:47:21.280Z,4.00
2022-11-05T21:51:41.939Z,3.88
2022-11-05T21:56:04.731Z,3.83
2022-11-05T22:00:11.561Z,4.10
2022-11-05T22:04:14.450Z,3.83
2022-11-05T22:08:17.288Z,3.85
2022-11-05T22:12:20.146Z,5.35
2022-11-05T22:16:24.290Z,4.53
2022-11-05T22:20:27.104Z,4.28
2022-11-05T22:24:31.664Z,3.92
2022-11-05T22:28:34.452Z,4.32
2022-11-05T22:32:38.921Z,4.20
2022-11-05T22:36:41.706Z,4.43
2022-11-05T22:40:44.504Z,4.40
2022-11-05T22:44:47.292Z,4.60
2022-11-05T22:48:51.849Z,4.45
2022-11-05T22:52:54.710Z,4.60
2022-11-05T22:56:57.609Z,4.68
2022-11-05T23:01:00.718Z,4.30
2022-11-05T23:05:05.042Z,4.40
2022-11-05T23:09:31.019Z,4.70
2022-11-05T23:13:33.845Z,4.53
2022-11-05T23:17:54.282Z,4.40
2022-11-05T23:22:16.283Z,4.15
2022-11-05T23:26:36.474Z,3.88
2022-11-05T23:31:03.374Z,4.18
2022-11-05T23:35:07.095Z,4.25
2022-11-05T23:39:10.330Z,3.92
2022-11-05T23:43:30.530Z,3.88
2022-11-05T23:47:51.051Z,4.15
2022-11-05T23:51:53.871Z,4.82
2022-11-05T23:56:02.301Z,4.57
